EDT,Max TemperatureF,Mean TemperatureF,Min TemperatureF,Max Dew PointF,MeanDew PointF,Min DewpointF,Max Humidity, Mean Humidity, Min Humidity, Max Sea Level PressureIn, Mean Sea Level PressureIn, Min Sea Level PressureIn, Max VisibilityMiles, Mean VisibilityMiles, Min VisibilityMiles, Max Wind SpeedMPH, Mean Wind SpeedMPH, Max Gust SpeedMPH,PrecipitationIn, CloudCover, Events, WindDirDegrees
2013-5-1,66,60,55,55,53,51,95,77,63,30.30,30.25,30.21,10,10,10,10,4,16,0.00,7,,67
2013-5-2,60,57,54,56,54,53,99,89,80,30.32,30.28,30.25,10,9,2,9,4,,0.16,8,Rain,23
2013-5-3,64,60,55,54,51,46,93,73,60,30.26,30.19,30.12,10,10,7,15,6,21,0.00,8,,73
2013-5-4,59,54,50,50,45,41,95,73,62,30.13,30.08,30.00,10,10,3,15,9,24,0.15,8,Rain,63
2013-5-5,56,52,47,56,50,46,98,95,90,30.03,29.93,29.85,10,5,2,16,7,25,2.99,8,Rain,53
2013-5-6,65,58,50,56,51,43,99,78,45,29.92,29.86,29.82,10,9,3,15,5,23,0.28,5,Rain,165
2013-5-7,68,56,43,54,48,43,99,83,41,29.97,29.92,29.88,10,9,3,13,2,21,0.06,5,Rain-Thunderstorm,248
2013-5-8,72,60,49,56,53,50,100,78,50,30.04,29.98,29.94,10,8,0,13,2,16,0.00,7,Fog-Rain,261
2013-5-9,79,64,49,58,54,49,98,67,40,30.11,30.07,30.02,10,10,7,12,3,21,0.00,2,,200
2013-5-10,79,66,52,61,57,51,98,72,46,30.11,30.04,29.98,10,10,5,16,4,25,0.00,1,,211
2013-5-11,75,68,60,66,60,58,99,80,59,29.99,29.91,29.82,10,9,2,14,5,21,0.37,6,Rain-Thunderstorm,208
2013-5-12,70,60,49,60,41,26,99,53,20,30.07,29.96,29.89,10,10,7,18,5,29,0.00,1,,312
2013-5-13,67,52,37,38,33,28,93,52,23,30.21,30.14,30.08,10,10,10,17,3,25,0.00,0,,304
2013-5-14,71,54,36,49,40,35,92,58,34,30.27,30.19,30.09,10,10,10,16,4,26,0.00,0,,192
2013-5-15,86,68,50,61,56,49,94,63,41,30.11,30.04,29.97,10,10,10,16,3,25,0.10,1,,186
2013-5-16,80,68,57,62,58,52,96,66,39,30.06,30.02,29.99,10,10,10,10,4,20,0.00,0,,246
2013-5-17,82,70,57,62,59,54,98,69,43,30.12,30.08,30.03,10,9,5,9,4,23,0.00,3,,236
2013-5-18,69,65,61,66,63,60,99,93,80,30.17,30.12,30.09,10,7,1,9,3,16,0.47,8,Rain-Thunderstorm,169
2013-5-19,73,68,64,68,66,64,99,92,75,30.14,30.10,30.03,10,7,1,14,6,20,0.23,7,Rain-Thunderstorm,180
2013-5-20,80,72,64,68,66,64,100,85,61,30.16,30.09,30.04,10,7,0,13,3,18,0.00,5,Fog-Thunderstorm,181
2013-5-21,85,73,61,68,65,61,100,78,52,30.08,30.03,29.96,10,7,0,12,2,18,0.00,3,Fog,166
2013-5-22,82,72,63,68,65,62,99,85,59,30.04,29.99,29.90,10,8,1,18,5,36,1.14,5,Rain-Thunderstorm,158
2013-5-23,77,70,62,67,64,58,100,86,64,29.99,29.94,29.86,10,9,2,12,2,24,0.43,6,Rain-Thunderstorm,223
2013-5-24,71,62,53,58,44,32,97,55,24,30.24,30.07,29.93,10,10,7,18,7,30,0.00,0,,357
2013-5-25,76,60,43,47,39,33,85,46,21,30.33,30.24,30.18,10,10,10,8,2,,0.00,1,,319
2013-5-26,73,64,54,54,49,42,89,62,44,30.31,30.24,30.19,10,10,10,14,2,17,0.00,4,Rain,178
2013-5-27,79,64,50,60,55,50,95,68,44,30.29,30.23,30.16,10,10,10,14,3,22,0.00,0,,192
2013-5-28,81,70,58,63,60,58,97,73,49,30.26,30.21,30.17,10,10,7,17,4,25,0.00,1,,175
2013-5-29,82,71,60,64,61,59,95,71,46,30.27,30.23,30.19,10,10,10,15,5,21,0.00,1,,187
2013-5-30,81,70,59,64,61,58,96,75,50,30.31,30.25,30.21,10,10,10,8,2,,0.00,2,,162
2013-5-31,82,72,61,66,62,60,97,73,49,30.26,30.20,30.14,10,10,10,13,3,22,0.00,3,,195